sensor_id;sensor_type;location;lat;lon;timestamp;pressure;altitude;pressure_sealevel;temperature;humidity
81274;BME280;70753;47.908;11.274;2023-06-22T00:02:25;94815.75;;;25.05;53.72
81274;BME280;70753;47.908;11.274;2023-06-22T00:04:51;94823.56;;;25.10;53.61
81274;BME280;70753;47.908;11.274;2023-06-22T00:07:18;94826.31;;;25.10;53.46
81274;BME280;70753;47.908;11.274;2023-06-22T00:09:44;94814.25;;;25.11;53.55
81274;BME280;70753;47.908;11.274;2023-06-22T00:12:09;94822.03;;;25.13;53.59
81274;BME280;70753;47.908;11.274;2023-06-22T00:14:34;94817.19;;;24.96;53.85
81274;BME280;70753;47.908;11.274;2023-06-22T00:17:00;94825.97;;;25.16;53.34
81274;BME280;70753;47.908;11.274;2023-06-22T00:19:25;94818.97;;;25.15;53.75
81274;BME280;70753;47.908;11.274;2023-06-22T00:21:51;94823.56;;;25.10;53.47
81274;BME280;70753;47.908;11.274;2023-06-22T00:24:18;94829.13;;;25.18;53.51
81274;BME280;70753;47.908;11.274;2023-06-22T00:26:43;94824.34;;;25.07;53.43
81274;BME280;70753;47.908;11.274;2023-06-22T00:29:08;94825.00;;;24.97;54.05
81274;BME280;70753;47.908;11.274;2023-06-22T00:31:34;94826.59;;;25.02;53.56
81274;BME280;70753;47.908;11.274;2023-06-22T00:33:59;94823.53;;;25.03;53.62
81274;BME280;70753;47.908;11.274;2023-06-22T00:36:24;94818.88;;;25.07;53.92
81274;BME280;70753;47.908;11.274;2023-06-22T00:38:50;94813.25;;;24.93;54.00
81274;BME280;70753;47.908;11.274;2023-06-22T00:41:17;94811.09;;;24.76;54.70
81274;BME280;70753;47.908;11.274;2023-06-22T00:43:42;94811.50;;;24.78;54.23
81274;BME280;70753;47.908;11.274;2023-06-22T00:46:08;94809.69;;;24.60;54.70
81274;BME280;70753;47.908;11.274;2023-06-22T00:48:33;94808.31;;;24.43;55.48
81274;BME280;70753;47.908;11.274;2023-06-22T00:51:00;94800.53;;;24.42;55.15
81274;BME280;70753;47.908;11.274;2023-06-22T00:53:26;94788.50;;;24.46;55.43
81274;BME280;70753;47.908;11.274;2023-06-22T00:55:51;94787.66;;;24.42;55.44
81274;BME280;70753;47.908;11.274;2023-06-22T00:58:18;94792.19;;;24.31;55.87
81274;BME280;70753;47.908;11.274;2023-06-22T01:00:44;94789.97;;;24.40;54.97
81274;BME280;70753;47.908;11.274;2023-06-22T01:03:10;94777.50;;;24.39;55.08
81274;BME280;70753;47.908;11.274;2023-06-22T01:05:36;94772.78;;;24.36;55.24
81274;BME280;70753;47.908;11.274;2023-06-22T01:08:16;94772.78;;;24.36;55.36
81274;BME280;70753;47.908;11.274;2023-06-22T01:10:49;94776.69;;;24.35;55.12
81274;BME280;70753;47.908;11.274;2023-06-22T01:13:17;94775.69;;;24.20;55.63
81274;BME280;70753;47.908;11.274;2023-06-22T01:15:49;94771.69;;;24.11;55.64
81274;BME280;70753;47.908;11.274;2023-06-22T01:18:17;94760.03;;;24.14;55.75
81274;BME280;70753;47.908;11.274;2023-06-22T01:20:43;94756.13;;;24.11;55.73
81274;BME280;70753;47.908;11.274;2023-06-22T01:23:20;94758.78;;;24.08;55.81
81274;BME280;70753;47.908;11.274;2023-06-22T01:25:57;94761.50;;;24.08;55.95
81274;BME280;70753;47.908;11.274;2023-06-22T01:28:40;94755.44;;;23.92;56.55
81274;BME280;70753;47.908;11.274;2023-06-22T01:31:08;94764.59;;;24.06;56.16
81274;BME280;70753;47.908;11.274;2023-06-22T01:33:39;94756.81;;;24.05;55.85
81274;BME280;70753;47.908;11.274;2023-06-22T01:36:06;94755.56;;;24.02;55.85
81274;BME280;70753;47.908;11.274;2023-06-22T01:38:36;94758.16;;;23.92;56.64
81274;BME280;70753;47.908;11.274;2023-06-22T01:41:02;94762.53;;;24.00;56.34
81274;BME280;70753;47.908;11.274;2023-06-22T01:43:29;94760.94;;;23.99;56.47
81274;BME280;70753;47.908;11.274;2023-06-22T01:45:57;94759.94;;;24.07;56.70
81274;BME280;70753;47.908;11.274;2023-06-22T01:48:23;94767.72;;;24.05;56.74
81274;BME280;70753;47.908;11.274;2023-06-22T01:50:49;94762.91;;;23.98;57.10
81274;BME280;70753;47.908;11.274;2023-06-22T01:53:15;94770.28;;;23.98;56.89
81274;BME280;70753;47.908;11.274;2023-06-22T01:55:40;94775.03;;;24.01;56.80
81274;BME280;70753;47.908;11.274;2023-06-22T01:58:06;94769.91;;;23.99;56.84
81274;BME280;70753;47.908;11.274;2023-06-22T02:00:34;94780.09;;;24.02;57.19
81274;BME280;70753;47.908;11.274;2023-06-22T02:03:03;94780.09;;;24.02;56.99
81274;BME280;70753;47.908;11.274;2023-06-22T02:05:38;94773.47;;;24.03;57.25
81274;BME280;70753;47.908;11.274;2023-06-22T02:08:09;94771.53;;;24.04;57.25
81274;BME280;70753;47.908;11.274;2023-06-22T02:10:36;94774.56;;;23.99;56.82
81274;BME280;70753;47.908;11.274;2023-06-22T02:13:05;94776.28;;;24.07;56.91
81274;BME280;70753;47.908;11.274;2023-06-22T02:15:33;94776.53;;;23.98;56.98
81274;BME280;70753;47.908;11.274;2023-06-22T02:17:59;94778.78;;;23.93;57.46
81274;BME280;70753;47.908;11.274;2023-06-22T02:20:26;94783.75;;;23.87;57.61
81274;BME280;70753;47.908;11.274;2023-06-22T02:22:52;94790.81;;;23.92;57.47
81274;BME280;70753;47.908;11.274;2023-06-22T02:25:18;94787.28;;;23.88;57.37
81274;BME280;70753;47.908;11.274;2023-06-22T02:27:43;94782.59;;;23.88;57.66
81274;BME280;70753;47.908;11.274;2023-06-22T02:30:09;94785.66;;;23.60;58.53
81274;BME280;70753;47.908;11.274;2023-06-22T02:32:35;94782.00;;;23.76;58.28
81274;BME280;70753;47.908;11.274;2023-06-22T02:35:02;94780.38;;;23.71;58.51
81274;BME280;70753;47.908;11.274;2023-06-22T02:37:28;94789.63;;;23.67;58.20
81274;BME280;70753;47.908;11.274;2023-06-22T02:39:54;94789.22;;;23.64;58.51
81274;BME280;70753;47.908;11.274;2023-06-22T02:42:21;94790.00;;;23.65;58.30
81274;BME280;70753;47.908;11.274;2023-06-22T02:44:46;94794.25;;;23.62;58.14
81274;BME280;70753;47.908;11.274;2023-06-22T02:47:12;94788.13;;;23.69;58.19
81274;BME280;70753;47.908;11.274;2023-06-22T02:49:38;94785.25;;;23.58;58.79
81274;BME280;70753;47.908;11.274;2023-06-22T02:52:04;94791.72;;;23.50;59.11
81274;BME280;70753;47.908;11.274;2023-06-22T02:54:31;94797.41;;;23.42;59.15
81274;BME280;70753;47.908;11.274;2023-06-22T02:56:57;94791.59;;;23.43;58.94
81274;BME280;70753;47.908;11.274;2023-06-22T02:59:23;94790.09;;;23.46;58.82
81274;BME280;70753;47.908;11.274;2023-06-22T03:01:48;94785.44;;;23.46;59.02
81274;BME280;70753;47.908;11.274;2023-06-22T03:04:14;94785.44;;;23.46;59.20
81274;BME280;70753;47.908;11.274;2023-06-22T03:06:40;94788.63;;;23.52;59.06
81274;BME280;70753;47.908;11.274;2023-06-22T03:09:05;94783.94;;;23.49;59.15
81274;BME280;70753;47.908;11.274;2023-06-22T03:11:33;94786.28;;;23.50;58.95
81274;BME280;70753;47.908;11.274;2023-06-22T03:14:00;94786.16;;;23.43;59.01
81274;BME280;70753;47.908;11.274;2023-06-22T03:16:25;94792.38;;;23.44;59.28
81274;BME280;70753;47.908;11.274;2023-06-22T03:18:52;94783.94;;;23.49;59.00
81274;BME280;70753;47.908;11.274;2023-06-22T03:21:17;94776.84;;;23.44;58.70
81274;BME280;70753;47.908;11.274;2023-06-22T03:23:43;94773.72;;;23.42;58.93
81274;BME280;70753;47.908;11.274;2023-06-22T03:26:08;94776.72;;;23.37;59.01
81274;BME280;70753;47.908;11.274;2023-06-22T03:28:35;94772.78;;;23.35;59.57
81274;BME280;70753;47.908;11.274;2023-06-22T03:31:01;94764.84;;;23.26;59.72
81274;BME280;70753;47.908;11.274;2023-06-22T03:33:27;94777.31;;;23.27;59.44
81274;BME280;70753;47.908;11.274;2023-06-22T03:35:52;94776.88;;;23.25;60.16
81274;BME280;70753;47.908;11.274;2023-06-22T03:38:17;94771.88;;;23.27;59.68
81274;BME280;70753;47.908;11.274;2023-06-22T03:40:43;94775.72;;;23.26;60.04
81274;BME280;70753;47.908;11.274;2023-06-22T03:43:10;94780.88;;;23.31;59.68
81274;BME280;70753;47.908;11.274;2023-06-22T03:45:37;94792.22;;;23.33;60.07
81274;BME280;70753;47.908;11.274;2023-06-22T03:48:03;94781.75;;;23.35;60.18
81274;BME280;70753;47.908;11.274;2023-06-22T03:50:28;94785.31;;;23.39;60.24
81274;BME280;70753;47.908;11.274;2023-06-22T03:52:53;94778.31;;;23.38;60.23
81274;BME280;70753;47.908;11.274;2023-06-22T03:55:19;94785.34;;;23.43;59.87
81274;BME280;70753;47.908;11.274;2023-06-22T03:57:45;94782.97;;;23.38;59.70
81274;BME280;70753;47.908;11.274;2023-06-22T04:00:11;94789.19;;;23.38;59.90
81274;BME280;70753;47.908;11.274;2023-06-22T04:02:38;94786.16;;;23.43;59.92
81274;BME280;70753;47.908;11.274;2023-06-22T04:05:04;94789.97;;;23.39;60.66
81274;BME280;70753;47.908;11.274;2023-06-22T04:07:30;94783.97;;;23.52;60.19
81274;BME280;70753;47.908;11.274;2023-06-22T04:09:55;94784.44;;;23.58;60.07
81274;BME280;70753;47.908;11.274;2023-06-22T04:12:21;94789.59;;;23.63;60.00
81274;BME280;70753;47.908;11.274;2023-06-22T04:14:46;94797.47;;;23.68;59.66
81274;BME280;70753;47.908;11.274;2023-06-22T04:17:12;94799.38;;;23.68;59.96
81274;BME280;70753;47.908;11.274;2023-06-22T04:19:39;94796.66;;;23.68;59.62
81274;BME280;70753;47.908;11.274;2023-06-22T04:22:04;94781.81;;;23.61;59.50
81274;BME280;70753;47.908;11.274;2023-06-22T04:24:29;94793.91;;;23.64;59.91
81274;BME280;70753;47.908;11.274;2023-06-22T04:26:55;94794.63;;;23.61;60.27
81274;BME280;70753;47.908;11.274;2023-06-22T04:29:21;94793.22;;;23.71;59.86
81274;BME280;70753;47.908;11.274;2023-06-22T04:31:47;94790.81;;;23.66;59.98
81274;BME280;70753;47.908;11.274;2023-06-22T04:34:13;94796.25;;;23.66;59.85
81274;BME280;70753;47.908;11.274;2023-06-22T04:36:40;94794.38;;;23.70;59.43
81274;BME280;70753;47.908;11.274;2023-06-22T04:39:06;94797.22;;;23.77;59.90
81274;BME280;70753;47.908;11.274;2023-06-22T04:41:32;94788.72;;;23.82;59.19
81274;BME280;70753;47.908;11.274;2023-06-22T04:43:58;94782.84;;;23.80;59.49
81274;BME280;70753;47.908;11.274;2023-06-22T04:46:23;94782.44;;;23.78;59.02
81274;BME280;70753;47.908;11.274;2023-06-22T04:48:49;94789.91;;;23.84;59.05
81274;BME280;70753;47.908;11.274;2023-06-22T04:51:14;94779.94;;;23.92;58.79
81274;BME280;70753;47.908;11.274;2023-06-22T04:53:41;94791.28;;;23.97;58.31
81274;BME280;70753;47.908;11.274;2023-06-22T04:56:06;94786.63;;;23.98;58.52
81274;BME280;70753;47.908;11.274;2023-06-22T04:58:32;94783.19;;;24.01;58.07
81274;BME280;70753;47.908;11.274;2023-06-22T05:01:01;94782.50;;;24.07;58.20
81274;BME280;70753;47.908;11.274;2023-06-22T05:03:27;94776.34;;;24.10;58.06
81274;BME280;70753;47.908;11.274;2023-06-22T05:05:52;94772.50;;;24.15;57.87
81274;BME280;70753;47.908;11.274;2023-06-22T05:08:18;94777.22;;;24.18;57.32
81274;BME280;70753;47.908;11.274;2023-06-22T05:10:45;94769.56;;;24.27;57.12
81274;BME280;70753;47.908;11.274;2023-06-22T05:13:11;94766.91;;;24.30;57.29
81274;BME280;70753;47.908;11.274;2023-06-22T05:15:37;94763.34;;;24.26;57.47
81274;BME280;70753;47.908;11.274;2023-06-22T05:18:02;94773.16;;;24.34;57.49
81274;BME280;70753;47.908;11.274;2023-06-22T05:20:28;94775.94;;;24.38;56.73
81274;BME280;70753;47.908;11.274;2023-06-22T05:22:53;94762.03;;;24.47;56.25
81274;BME280;70753;47.908;11.274;2023-06-22T05:25:19;94763.53;;;24.44;56.64
81274;BME280;70753;47.908;11.274;2023-06-22T05:27:46;94771.31;;;24.42;56.89
81274;BME280;70753;47.908;11.274;2023-06-22T05:30:12;94777.78;;;24.60;55.91
81274;BME280;70753;47.908;11.274;2023-06-22T05:32:37;94772.91;;;24.43;55.85
81274;BME280;70753;47.908;11.274;2023-06-22T05:35:04;94777.88;;;24.37;56.20
81274;BME280;70753;47.908;11.274;2023-06-22T05:37:29;94766.69;;;24.46;56.00
81274;BME280;70753;47.908;11.274;2023-06-22T05:39:55;94770.56;;;24.45;55.59
81274;BME280;70753;47.908;11.274;2023-06-22T05:42:21;94775.34;;;24.52;56.11
81274;BME280;70753;47.908;11.274;2023-06-22T05:44:49;94773.41;;;24.52;56.43
81274;BME280;70753;47.908;11.274;2023-06-22T05:47:15;94775.56;;;24.69;55.62
81274;BME280;70753;47.908;11.274;2023-06-22T05:49:41;94775.16;;;24.67;55.78
81274;BME280;70753;47.908;11.274;2023-06-22T05:52:07;94776.44;;;24.77;55.83
81274;BME280;70753;47.908;11.274;2023-06-22T05:54:34;94775.16;;;25.00;55.11
81274;BME280;70753;47.908;11.274;2023-06-22T05:56:59;94772.91;;;25.09;55.39
81274;BME280;70753;47.908;11.274;2023-06-22T05:59:25;94773.22;;;25.01;56.12
81274;BME280;70753;47.908;11.274;2023-06-22T06:01:52;94768.06;;;25.33;54.83
81274;BME280;70753;47.908;11.274;2023-06-22T06:04:17;94770.47;;;25.01;55.60
81274;BME280;70753;47.908;11.274;2023-06-22T06:06:43;94766.03;;;25.23;54.90
81274;BME280;70753;47.908;11.274;2023-06-22T06:09:09;94769.28;;;25.39;54.70
81274;BME280;70753;47.908;11.274;2023-06-22T06:11:34;94766.19;;;25.40;54.69
81274;BME280;70753;47.908;11.274;2023-06-22T06:14:00;94774.09;;;25.49;54.39
81274;BME280;70753;47.908;11.274;2023-06-22T06:16:26;94754.09;;;24.97;55.95
81274;BME280;70753;47.908;11.274;2023-06-22T06:18:54;94756.94;;;25.48;54.89
81274;BME280;70753;47.908;11.274;2023-06-22T06:21:20;94764.81;;;25.60;53.63
81274;BME280;70753;47.908;11.274;2023-06-22T06:23:45;94759.09;;;25.79;53.74
81274;BME280;70753;47.908;11.274;2023-06-22T06:26:11;94755.72;;;25.97;52.96
81274;BME280;70753;47.908;11.274;2023-06-22T06:28:36;94752.63;;;25.98;53.02
81274;BME280;70753;47.908;11.274;2023-06-22T06:31:03;94753.50;;;26.09;52.67
81274;BME280;70753;47.908;11.274;2023-06-22T06:33:29;94756.72;;;26.25;51.43
81274;BME280;70753;47.908;11.274;2023-06-22T06:35:56;94759.88;;;26.34;51.93
81274;BME280;70753;47.908;11.274;2023-06-22T06:38:21;94760.25;;;25.75;52.82
81274;BME280;70753;47.908;11.274;2023-06-22T06:40:47;94756.50;;;25.97;52.56
81274;BME280;70753;47.908;11.274;2023-06-22T06:43:13;94758.66;;;26.21;52.32
81274;BME280;70753;47.908;11.274;2023-06-22T06:45:39;94758.88;;;26.02;52.40
81274;BME280;70753;47.908;11.274;2023-06-22T06:48:05;94762.25;;;26.39;51.54
81274;BME280;70753;47.908;11.274;2023-06-22T06:50:31;94754.16;;;26.60;50.82
81274;BME280;70753;47.908;11.274;2023-06-22T06:52:58;94755.97;;;26.35;51.62
81274;BME280;70753;47.908;11.274;2023-06-22T06:55:24;94750.19;;;26.54;51.33
81274;BME280;70753;47.908;11.274;2023-06-22T06:57:52;94757.78;;;26.86;50.40
81274;BME280;70753;47.908;11.274;2023-06-22T07:00:18;94746.41;;;26.77;50.12
81274;BME280;70753;47.908;11.274;2023-06-22T07:02:44;94751.47;;;26.71;50.63
81274;BME280;70753;47.908;11.274;2023-06-22T07:05:10;94751.50;;;26.78;50.28
81274;BME280;70753;47.908;11.274;2023-06-22T07:07:36;94752.34;;;26.96;50.27
81274;BME280;70753;47.908;11.274;2023-06-22T07:10:04;94750.06;;;27.23;49.79
81274;BME280;70753;47.908;11.274;2023-06-22T07:12:30;94752.84;;;27.48;48.97
81274;BME280;70753;47.908;11.274;2023-06-22T07:15:01;94741.50;;;27.56;48.67
81274;BME280;70753;47.908;11.274;2023-06-22T07:17:27;94739.94;;;27.69;48.56
81274;BME280;70753;47.908;11.274;2023-06-22T07:19:53;94730.13;;;27.96;47.22
81274;BME280;70753;47.908;11.274;2023-06-22T07:22:18;94734.03;;;27.95;48.08
81274;BME280;70753;47.908;11.274;2023-06-22T07:24:44;94742.28;;;27.95;47.17
81274;BME280;70753;47.908;11.274;2023-06-22T07:27:11;94731.69;;;28.19;46.54
81274;BME280;70753;47.908;11.274;2023-06-22T07:29:36;94736.75;;;28.20;46.82
81274;BME280;70753;47.908;11.274;2023-06-22T07:32:02;94726.16;;;28.36;46.46
81274;BME280;70753;47.908;11.274;2023-06-22T07:34:28;94730.00;;;28.46;46.65
81274;BME280;70753;47.908;11.274;2023-06-22T07:36:53;94724.16;;;28.40;46.25
81274;BME280;70753;47.908;11.274;2023-06-22T07:39:19;94722.16;;;28.62;46.00
81274;BME280;70753;47.908;11.274;2023-06-22T07:41:44;94720.47;;;28.82;45.62
81274;BME280;70753;47.908;11.274;2023-06-22T07:44:11;94722.44;;;28.85;45.63
81274;BME280;70753;47.908;11.274;2023-06-22T07:46:37;94722.38;;;28.96;44.69
81274;BME280;70753;47.908;11.274;2023-06-22T07:49:02;94719.63;;;28.96;44.15
81274;BME280;70753;47.908;11.274;2023-06-22T07:51:29;94721.53;;;29.09;43.26
81274;BME280;70753;47.908;11.274;2023-06-22T07:53:54;94719.06;;;29.25;42.84
81274;BME280;70753;47.908;11.274;2023-06-22T07:56:20;94722.00;;;28.94;44.21
81274;BME280;70753;47.908;11.274;2023-06-22T07:58:45;94715.66;;;29.07;44.66
81274;BME280;70753;47.908;11.274;2023-06-22T08:01:13;94716.72;;;29.27;44.49
81274;BME280;70753;47.908;11.274;2023-06-22T08:03:38;94713.94;;;29.31;43.56
81274;BME280;70753;47.908;11.274;2023-06-22T08:06:04;94717.41;;;29.38;43.45
81274;BME280;70753;47.908;11.274;2023-06-22T08:08:29;94715.88;;;29.37;43.95
81274;BME280;70753;47.908;11.274;2023-06-22T08:10:56;94720.16;;;29.42;42.62
81274;BME280;70753;47.908;11.274;2023-06-22T08:13:22;94720.13;;;29.45;42.48
81274;BME280;70753;47.908;11.274;2023-06-22T08:15:47;94718.19;;;29.39;42.47
81274;BME280;70753;47.908;11.274;2023-06-22T08:18:16;94711.16;;;29.34;42.89
81274;BME280;70753;47.908;11.274;2023-06-22T08:20:41;94709.97;;;29.39;43.13
81274;BME280;70753;47.908;11.274;2023-06-22T08:23:07;94709.88;;;29.49;42.18
81274;BME280;70753;47.908;11.274;2023-06-22T08:25:32;94702.28;;;29.68;41.34
81274;BME280;70753;47.908;11.274;2023-06-22T08:27:58;94691.22;;;29.75;41.73
81274;BME280;70753;47.908;11.274;2023-06-22T08:30:23;94698.56;;;29.88;41.71
81274;BME280;70753;47.908;11.274;2023-06-22T08:32:49;94698.88;;;29.97;41.83
81274;BME280;70753;47.908;11.274;2023-06-22T08:35:16;94697.56;;;30.12;41.14
81274;BME280;70753;47.908;11.274;2023-06-22T08:37:41;94698.53;;;30.29;40.93
81274;BME280;70753;47.908;11.274;2023-06-22T08:40:09;94697.59;;;30.46;39.98
81274;BME280;70753;47.908;11.274;2023-06-22T08:42:35;94695.16;;;30.52;40.63
81274;BME280;70753;47.908;11.274;2023-06-22T08:45:01;94691.03;;;30.67;39.74
81274;BME280;70753;47.908;11.274;2023-06-22T08:47:27;94693.97;;;30.83;39.79
81274;BME280;70753;47.908;11.274;2023-06-22T08:49:53;94697.84;;;30.89;39.71
81274;BME280;70753;47.908;11.274;2023-06-22T08:52:20;94698.56;;;30.96;39.45
81274;BME280;70753;47.908;11.274;2023-06-22T08:54:45;94695.44;;;30.94;39.49
81274;BME280;70753;47.908;11.274;2023-06-22T08:57:11;94682.69;;;31.04;39.04
81274;BME280;70753;47.908;11.274;2023-06-22T08:59:36;94695.22;;;31.09;38.01
81274;BME280;70753;47.908;11.274;2023-06-22T09:02:02;94687.94;;;31.22;38.39
81274;BME280;70753;47.908;11.274;2023-06-22T09:04:28;94687.34;;;31.34;38.61
81274;BME280;70753;47.908;11.274;2023-06-22T09:06:53;94691.53;;;31.45;37.98
81274;BME280;70753;47.908;11.274;2023-06-22T09:09:22;94683.38;;;31.61;38.14
81274;BME280;70753;47.908;11.274;2023-06-22T09:11:48;94690.28;;;31.73;37.66
81274;BME280;70753;47.908;11.274;2023-06-22T09:14:13;94682.75;;;32.00;37.13
81274;BME280;70753;47.908;11.274;2023-06-22T09:16:38;94687.78;;;32.05;38.30
81274;BME280;70753;47.908;11.274;2023-06-22T09:19:04;94684.41;;;32.17;37.80
81274;BME280;70753;47.908;11.274;2023-06-22T09:21:30;94674.63;;;32.32;37.48
81274;BME280;70753;47.908;11.274;2023-06-22T09:23:57;94675.47;;;32.53;37.09
81274;BME280;70753;47.908;11.274;2023-06-22T09:26:26;94684.78;;;32.59;37.66
81274;BME280;70753;47.908;11.274;2023-06-22T09:28:52;94674.44;;;32.63;37.44
81274;BME280;70753;47.908;11.274;2023-06-22T09:31:17;94672.34;;;32.70;36.81
81274;BME280;70753;47.908;11.274;2023-06-22T09:33:43;94668.31;;;32.75;37.67
81274;BME280;70753;47.908;11.274;2023-06-22T09:36:09;94672.31;;;32.90;36.88
81274;BME280;70753;47.908;11.274;2023-06-22T09:38:36;94666.50;;;33.04;36.96
81274;BME280;70753;47.908;11.274;2023-06-22T09:41:02;94669.63;;;33.22;36.57
81274;BME280;70753;47.908;11.274;2023-06-22T09:43:31;94656.69;;;33.35;36.32
81274;BME280;70753;47.908;11.274;2023-06-22T09:45:57;94666.22;;;33.50;35.86
81274;BME280;70753;47.908;11.274;2023-06-22T09:48:22;94662.25;;;33.51;36.23
81274;BME280;70753;47.908;11.274;2023-06-22T09:50:48;94652.31;;;33.54;36.39
81274;BME280;70753;47.908;11.274;2023-06-22T09:53:14;94645.56;;;33.55;36.43
81274;BME280;70753;47.908;11.274;2023-06-22T09:55:40;94649.38;;;33.61;35.84
81274;BME280;70753;47.908;11.274;2023-06-22T09:58:05;94645.78;;;33.76;35.71
81274;BME280;70753;47.908;11.274;2023-06-22T10:00:32;94637.50;;;33.76;35.65
81274;BME280;70753;47.908;11.274;2023-06-22T10:02:57;94628.41;;;33.92;35.10
81274;BME280;70753;47.908;11.274;2023-06-22T10:05:23;94638.00;;;34.04;35.13
81274;BME280;70753;47.908;11.274;2023-06-22T10:07:50;94647.31;;;34.10;35.49
81274;BME280;70753;47.908;11.274;2023-06-22T10:10:16;94627.94;;;34.10;35.29
81274;BME280;70753;47.908;11.274;2023-06-22T10:12:43;94635.19;;;34.20;34.38
81274;BME280;70753;47.908;11.274;2023-06-22T10:15:10;94631.78;;;34.28;34.58
81274;BME280;70753;47.908;11.274;2023-06-22T10:17:36;94634.38;;;34.48;33.84
81274;BME280;70753;47.908;11.274;2023-06-22T10:20:03;94633.31;;;34.58;33.50
81274;BME280;70753;47.908;11.274;2023-06-22T10:22:28;94622.63;;;34.72;34.01
81274;BME280;70753;47.908;11.274;2023-06-22T10:24:54;94627.31;;;35.01;33.35
81274;BME280;70753;47.908;11.274;2023-06-22T10:27:19;94635.06;;;35.06;32.52
81274;BME280;70753;47.908;11.274;2023-06-22T10:29:45;94630.31;;;35.06;31.80
81274;BME280;70753;47.908;11.274;2023-06-22T10:32:10;94628.97;;;34.98;31.96
81274;BME280;70753;47.908;11.274;2023-06-22T10:34:38;94623.19;;;35.05;32.42
81274;BME280;70753;47.908;11.274;2023-06-22T10:37:05;94618.75;;;35.45;31.72
81274;BME280;70753;47.908;11.274;2023-06-22T10:39:31;94625.44;;;35.82;31.09
81274;BME280;70753;47.908;11.274;2023-06-22T10:41:57;94620.97;;;36.10;30.22
81274;BME280;70753;47.908;11.274;2023-06-22T10:44:23;94618.94;;;36.10;30.83
81274;BME280;70753;47.908;11.274;2023-06-22T10:46:48;94618.44;;;36.03;30.86
81274;BME280;70753;47.908;11.274;2023-06-22T10:49:13;94617.00;;;35.98;30.55
81274;BME280;70753;47.908;11.274;2023-06-22T10:51:40;94619.16;;;36.16;30.09
81274;BME280;70753;47.908;11.274;2023-06-22T10:54:06;94615.13;;;35.83;30.23
81274;BME280;70753;47.908;11.274;2023-06-22T10:56:31;94607.66;;;35.92;30.11
81274;BME280;70753;47.908;11.274;2023-06-22T10:58:56;94610.53;;;36.23;30.54
81274;BME280;70753;47.908;11.274;2023-06-22T11:01:22;94603.25;;;36.38;29.76
81274;BME280;70753;47.908;11.274;2023-06-22T11:03:48;94601.72;;;36.59;29.87
81274;BME280;70753;47.908;11.274;2023-06-22T11:06:13;94605.91;;;37.25;28.56
81274;BME280;70753;47.908;11.274;2023-06-22T11:08:43;94603.63;;;37.99;27.49
81274;BME280;70753;47.908;11.274;2023-06-22T11:11:09;94598.84;;;38.36;26.79
81274;BME280;70753;47.908;11.274;2023-06-22T11:13:35;94599.31;;;38.53;26.60
81274;BME280;70753;47.908;11.274;2023-06-22T11:16:00;94606.47;;;39.46;25.33
81274;BME280;70753;47.908;11.274;2023-06-22T11:18:27;94596.75;;;39.65;25.05
81274;BME280;70753;47.908;11.274;2023-06-22T11:20:52;94606.63;;;39.75;25.22
81274;BME280;70753;47.908;11.274;2023-06-22T11:23:18;94595.69;;;39.87;24.16
81274;BME280;70753;47.908;11.274;2023-06-22T11:25:44;94592.06;;;39.71;24.39
81274;BME280;70753;47.908;11.274;2023-06-22T11:28:10;94596.88;;;39.95;24.64
81274;BME280;70753;47.908;11.274;2023-06-22T11:30:35;94589.41;;;39.77;25.29
81274;BME280;70753;47.908;11.274;2023-06-22T11:33:01;94590.66;;;40.00;23.62
81274;BME280;70753;47.908;11.274;2023-06-22T11:35:26;94588.88;;;39.31;25.00
81274;BME280;70753;47.908;11.274;2023-06-22T11:37:51;94591.53;;;38.75;25.78
81274;BME280;70753;47.908;11.274;2023-06-22T11:40:17;94592.22;;;38.24;25.90
81274;BME280;70753;47.908;11.274;2023-06-22T11:42:44;94590.03;;;38.19;25.79
81274;BME280;70753;47.908;11.274;2023-06-22T11:45:09;94580.28;;;38.15;26.06
81274;BME280;70753;47.908;11.274;2023-06-22T11:47:35;94574.88;;;38.02;26.64
81274;BME280;70753;47.908;11.274;2023-06-22T11:50:00;94576.41;;;38.12;26.23
81274;BME280;70753;47.908;11.274;2023-06-22T11:52:26;94574.47;;;38.82;25.42
81274;BME280;70753;47.908;11.274;2023-06-22T11:54:51;94572.06;;;39.73;24.43
81274;BME280;70753;47.908;11.274;2023-06-22T11:57:16;94564.06;;;40.57;23.77
81274;BME280;70753;47.908;11.274;2023-06-22T11:59:43;94560.31;;;40.60;23.02
81274;BME280;70753;47.908;11.274;2023-06-22T12:02:08;94550.09;;;40.86;23.06
81274;BME280;70753;47.908;11.274;2023-06-22T12:04:34;94553.28;;;40.65;23.12
81274;BME280;70753;47.908;11.274;2023-06-22T12:07:00;94550.75;;;40.67;22.61
81274;BME280;70753;47.908;11.274;2023-06-22T12:09:28;94552.41;;;40.06;22.86
81274;BME280;70753;47.908;11.274;2023-06-22T12:11:53;94550.91;;;39.57;23.82
81274;BME280;70753;47.908;11.274;2023-06-22T12:14:18;94547.56;;;39.44;23.99
81274;BME280;70753;47.908;11.274;2023-06-22T12:16:46;94544.41;;;39.28;24.67
81274;BME280;70753;47.908;11.274;2023-06-22T12:19:11;94541.97;;;39.11;24.67
81274;BME280;70753;47.908;11.274;2023-06-22T12:21:37;94536.19;;;38.91;24.23
81274;BME280;70753;47.908;11.274;2023-06-22T12:24:03;94534.59;;;38.99;24.11
81274;BME280;70753;47.908;11.274;2023-06-22T12:26:28;94548.75;;;38.87;23.95
81274;BME280;70753;47.908;11.274;2023-06-22T12:28:54;94528.75;;;38.88;24.04
81274;BME280;70753;47.908;11.274;2023-06-22T12:31:19;94540.41;;;38.78;24.14
81274;BME280;70753;47.908;11.274;2023-06-22T12:33:47;94529.69;;;38.85;23.90
81274;BME280;70753;47.908;11.274;2023-06-22T12:36:13;94537.69;;;39.01;24.06
81274;BME280;70753;47.908;11.274;2023-06-22T12:38:38;94535.38;;;39.00;24.41
81274;BME280;70753;47.908;11.274;2023-06-22T12:41:03;94525.47;;;39.32;23.25
81274;BME280;70753;47.908;11.274;2023-06-22T12:43:29;94530.69;;;39.15;23.41
81274;BME280;70753;47.908;11.274;2023-06-22T12:45:54;94532.28;;;38.98;24.41